sensor_id;sensor_type;location;lat;lon;timestamp;P1;durP1;ratioP1;P2;durP2;ratioP2
9888;SDS011;4983;42.112;24.738;2023-07-28T00:01:04;2.03;;;1.87;;
9888;SDS011;4983;42.112;24.738;2023-07-28T00:03:31;2.57;;;2.37;;
9888;SDS011;4983;42.112;24.738;2023-07-28T00:05:57;3.53;;;2.17;;
9888;SDS011;4983;42.112;24.738;2023-07-28T00:08:24;2.30;;;2.10;;
9888;SDS011;4983;42.112;24.738;2023-07-28T00:10:51;3.20;;;2.10;;
9888;SDS011;4983;42.112;24.738;2023-07-28T00:13:18;3.37;;;1.83;;
9888;SDS011;4983;42.112;24.738;2023-07-28T00:15:45;2.30;;;2.10;;
9888;SDS011;4983;42.112;24.738;2023-07-28T00:18:13;2.13;;;1.93;;
9888;SDS011;4983;42.112;24.738;2023-07-28T00:20:40;2.57;;;2.07;;
9888;SDS011;4983;42.112;24.738;2023-07-28T00:23:07;2.00;;;1.90;;
9888;SDS011;4983;42.112;24.738;2023-07-28T00:25:34;2.20;;;1.97;;
9888;SDS011;4983;42.112;24.738;2023-07-28T00:28:02;2.23;;;2.03;;
9888;SDS011;4983;42.112;24.738;2023-07-28T00:30:31;2.10;;;1.90;;
9888;SDS011;4983;42.112;24.738;2023-07-28T00:32:59;1.90;;;1.70;;
9888;SDS011;4983;42.112;24.738;2023-07-28T00:35:27;2.00;;;1.90;;
9888;SDS011;4983;42.112;24.738;2023-07-28T00:37:56;2.23;;;2.03;;
9888;SDS011;4983;42.112;24.738;2023-07-28T00:40:24;2.47;;;2.27;;
9888;SDS011;4983;42.112;24.738;2023-07-28T00:42:51;2.00;;;1.90;;
9888;SDS011;4983;42.112;24.738;2023-07-28T00:45:19;2.17;;;2.00;;
9888;SDS011;4983;42.112;24.738;2023-07-28T00:47:47;2.13;;;2.03;;
9888;SDS011;4983;42.112;24.738;2023-07-28T00:50:14;2.00;;;1.80;;
9888;SDS011;4983;42.112;24.738;2023-07-28T00:52:42;2.13;;;1.93;;
9888;SDS011;4983;42.112;24.738;2023-07-28T00:55:09;2.60;;;2.07;;
9888;SDS011;4983;42.112;24.738;2023-07-28T00:57:36;1.97;;;1.87;;
9888;SDS011;4983;42.112;24.738;2023-07-28T01:00:05;2.73;;;2.20;;
9888;SDS011;4983;42.112;24.738;2023-07-28T01:02:32;2.23;;;2.03;;
9888;SDS011;4983;42.112;24.738;2023-07-28T01:04:59;2.50;;;2.30;;
9888;SDS011;4983;42.112;24.738;2023-07-28T01:07:30;2.33;;;2.13;;
9888;SDS011;4983;42.112;24.738;2023-07-28T01:10:10;2.03;;;1.83;;
9888;SDS011;4983;42.112;24.738;2023-07-28T01:12:39;3.03;;;2.00;;
9888;SDS011;4983;42.112;24.738;2023-07-28T01:15:06;2.20;;;2.00;;
9888;SDS011;4983;42.112;24.738;2023-07-28T01:17:33;2.27;;;2.10;;
9888;SDS011;4983;42.112;24.738;2023-07-28T01:20:02;2.57;;;1.90;;
9888;SDS011;4983;42.112;24.738;2023-07-28T01:22:35;3.23;;;1.80;;
9888;SDS011;4983;42.112;24.738;2023-07-28T01:25:17;4.27;;;2.40;;
9888;SDS011;4983;42.112;24.738;2023-07-28T01:27:50;2.50;;;2.17;;
9888;SDS011;4983;42.112;24.738;2023-07-28T01:30:19;2.40;;;2.20;;
9888;SDS011;4983;42.112;24.738;2023-07-28T01:32:50;2.73;;;2.20;;
9888;SDS011;4983;42.112;24.738;2023-07-28T01:35:20;2.40;;;2.20;;
9888;SDS011;4983;42.112;24.738;2023-07-28T01:37:46;2.30;;;2.10;;
9888;SDS011;4983;42.112;24.738;2023-07-28T01:40:16;2.37;;;2.00;;
9888;SDS011;4983;42.112;24.738;2023-07-28T01:42:43;2.27;;;2.07;;
9888;SDS011;4983;42.112;24.738;2023-07-28T01:45:12;2.00;;;1.90;;
9888;SDS011;4983;42.112;24.738;2023-07-28T01:47:39;2.40;;;2.20;;
9888;SDS011;4983;42.112;24.738;2023-07-28T01:50:07;2.80;;;2.20;;
9888;SDS011;4983;42.112;24.738;2023-07-28T01:52:34;2.63;;;2.43;;
9888;SDS011;4983;42.112;24.738;2023-07-28T01:55:01;2.33;;;2.13;;
9888;SDS011;4983;42.112;24.738;2023-07-28T01:57:30;2.87;;;2.20;;
9888;SDS011;4983;42.112;24.738;2023-07-28T01:59:59;1.97;;;1.87;;
9888;SDS011;4983;42.112;24.738;2023-07-28T02:02:27;2.37;;;2.17;;
9888;SDS011;4983;42.112;24.738;2023-07-28T02:04:54;2.30;;;2.10;;
9888;SDS011;4983;42.112;24.738;2023-07-28T02:07:21;3.57;;;2.20;;
9888;SDS011;4983;42.112;24.738;2023-07-28T02:09:49;2.67;;;2.47;;
9888;SDS011;4983;42.112;24.738;2023-07-28T02:12:16;2.50;;;2.27;;
9888;SDS011;4983;42.112;24.738;2023-07-28T02:14:43;2.67;;;2.30;;
9888;SDS011;4983;42.112;24.738;2023-07-28T02:17:09;2.70;;;2.03;;
9888;SDS011;4983;42.112;24.738;2023-07-28T02:19:38;2.30;;;2.10;;
9888;SDS011;4983;42.112;24.738;2023-07-28T02:22:05;2.47;;;2.27;;
9888;SDS011;4983;42.112;24.738;2023-07-28T02:24:32;2.60;;;2.40;;
9888;SDS011;4983;42.112;24.738;2023-07-28T02:26:59;2.00;;;1.90;;
9888;SDS011;4983;42.112;24.738;2023-07-28T02:29:26;2.10;;;1.97;;
9888;SDS011;4983;42.112;24.738;2023-07-28T02:31:53;2.03;;;1.93;;
9888;SDS011;4983;42.112;24.738;2023-07-28T02:34:20;2.50;;;2.30;;
9888;SDS011;4983;42.112;24.738;2023-07-28T02:36:48;2.47;;;2.27;;
9888;SDS011;4983;42.112;24.738;2023-07-28T02:39:15;2.33;;;2.13;;
9888;SDS011;4983;42.112;24.738;2023-07-28T02:41:42;2.30;;;2.10;;
9888;SDS011;4983;42.112;24.738;2023-07-28T02:44:09;2.60;;;2.40;;
9888;SDS011;4983;42.112;24.738;2023-07-28T02:46:37;3.03;;;2.37;;
9888;SDS011;4983;42.112;24.738;2023-07-28T02:49:04;2.47;;;2.20;;
9888;SDS011;4983;42.112;24.738;2023-07-28T02:51:30;2.23;;;2.03;;
9888;SDS011;4983;42.112;24.738;2023-07-28T02:54:00;3.70;;;2.40;;
9888;SDS011;4983;42.112;24.738;2023-07-28T02:56:27;1.90;;;1.80;;
9888;SDS011;4983;42.112;24.738;2023-07-28T02:58:54;2.50;;;2.30;;
9888;SDS011;4983;42.112;24.738;2023-07-28T03:01:20;2.70;;;2.07;;
9888;SDS011;4983;42.112;24.738;2023-07-28T03:03:47;2.27;;;2.10;;
9888;SDS011;4983;42.112;24.738;2023-07-28T03:06:14;2.37;;;2.17;;
9888;SDS011;4983;42.112;24.738;2023-07-28T03:08:41;2.37;;;2.17;;
9888;SDS011;4983;42.112;24.738;2023-07-28T03:11:09;2.23;;;2.03;;
9888;SDS011;4983;42.112;24.738;2023-07-28T03:13:36;2.30;;;2.10;;
9888;SDS011;4983;42.112;24.738;2023-07-28T03:16:04;2.20;;;2.00;;
9888;SDS011;4983;42.112;24.738;2023-07-28T03:18:31;2.63;;;2.33;;
9888;SDS011;4983;42.112;24.738;2023-07-28T03:20:58;2.27;;;2.10;;
9888;SDS011;4983;42.112;24.738;2023-07-28T03:23:24;2.50;;;2.03;;
9888;SDS011;4983;42.112;24.738;2023-07-28T03:25:51;2.50;;;2.23;;
9888;SDS011;4983;42.112;24.738;2023-07-28T03:28:20;2.40;;;2.20;;
9888;SDS011;4983;42.112;24.738;2023-07-28T03:30:46;2.20;;;2.00;;
9888;SDS011;4983;42.112;24.738;2023-07-28T03:33:13;2.60;;;2.23;;
9888;SDS011;4983;42.112;24.738;2023-07-28T03:35:40;3.17;;;2.30;;
9888;SDS011;4983;42.112;24.738;2023-07-28T03:38:07;2.43;;;2.23;;
9888;SDS011;4983;42.112;24.738;2023-07-28T03:40:34;2.50;;;2.30;;
9888;SDS011;4983;42.112;24.738;2023-07-28T03:43:01;2.93;;;2.30;;
9888;SDS011;4983;42.112;24.738;2023-07-28T03:45:30;3.53;;;2.67;;
9888;SDS011;4983;42.112;24.738;2023-07-28T03:47:57;2.97;;;2.50;;
9888;SDS011;4983;42.112;24.738;2023-07-28T03:50:24;2.80;;;2.60;;
9888;SDS011;4983;42.112;24.738;2023-07-28T03:52:51;3.00;;;2.80;;
9888;SDS011;4983;42.112;24.738;2023-07-28T03:55:18;3.63;;;2.47;;
9888;SDS011;4983;42.112;24.738;2023-07-28T03:57:45;2.93;;;2.47;;
9888;SDS011;4983;42.112;24.738;2023-07-28T04:00:12;3.47;;;2.40;;
9888;SDS011;4983;42.112;24.738;2023-07-28T04:02:41;2.87;;;2.57;;
9888;SDS011;4983;42.112;24.738;2023-07-28T04:05:10;2.30;;;2.10;;
9888;SDS011;4983;42.112;24.738;2023-07-28T04:07:37;3.90;;;2.43;;
9888;SDS011;4983;42.112;24.738;2023-07-28T04:10:04;4.10;;;2.47;;
9888;SDS011;4983;42.112;24.738;2023-07-28T04:12:32;3.17;;;2.47;;
9888;SDS011;4983;42.112;24.738;2023-07-28T04:14:58;2.50;;;2.30;;
9888;SDS011;4983;42.112;24.738;2023-07-28T04:17:27;2.90;;;2.27;;
9888;SDS011;4983;42.112;24.738;2023-07-28T04:19:55;3.13;;;2.27;;
9888;SDS011;4983;42.112;24.738;2023-07-28T04:22:22;3.00;;;2.50;;
9888;SDS011;4983;42.112;24.738;2023-07-28T04:24:49;4.90;;;2.30;;
9888;SDS011;4983;42.112;24.738;2023-07-28T04:27:16;2.80;;;2.33;;
9888;SDS011;4983;42.112;24.738;2023-07-28T04:29:44;2.40;;;2.20;;
9888;SDS011;4983;42.112;24.738;2023-07-28T04:32:11;2.67;;;2.37;;
9888;SDS011;4983;42.112;24.738;2023-07-28T04:34:39;2.53;;;2.33;;
9888;SDS011;4983;42.112;24.738;2023-07-28T04:37:07;3.90;;;2.40;;
9888;SDS011;4983;42.112;24.738;2023-07-28T04:39:34;4.23;;;2.80;;
9888;SDS011;4983;42.112;24.738;2023-07-28T04:42:01;3.73;;;2.77;;
9888;SDS011;4983;42.112;24.738;2023-07-28T04:44:28;3.73;;;2.80;;
9888;SDS011;4983;42.112;24.738;2023-07-28T04:46:55;3.67;;;3.07;;
9888;SDS011;4983;42.112;24.738;2023-07-28T04:49:22;6.10;;;3.30;;
9888;SDS011;4983;42.112;24.738;2023-07-28T04:51:49;3.63;;;3.10;;
9888;SDS011;4983;42.112;24.738;2023-07-28T04:54:17;9.87;;;3.27;;
9888;SDS011;4983;42.112;24.738;2023-07-28T04:56:44;5.53;;;2.93;;
9888;SDS011;4983;42.112;24.738;2023-07-28T04:59:11;3.90;;;3.10;;
9888;SDS011;4983;42.112;24.738;2023-07-28T05:01:38;5.13;;;3.37;;
9888;SDS011;4983;42.112;24.738;2023-07-28T05:04:05;4.20;;;3.07;;
9888;SDS011;4983;42.112;24.738;2023-07-28T05:06:32;4.00;;;3.40;;
9888;SDS011;4983;42.112;24.738;2023-07-28T05:08:59;3.77;;;2.80;;
9888;SDS011;4983;42.112;24.738;2023-07-28T05:11:27;3.10;;;2.80;;
9888;SDS011;4983;42.112;24.738;2023-07-28T05:13:54;3.47;;;3.03;;
9888;SDS011;4983;42.112;24.738;2023-07-28T05:16:21;3.20;;;2.90;;
9888;SDS011;4983;42.112;24.738;2023-07-28T05:18:48;5.90;;;3.27;;
9888;SDS011;4983;42.112;24.738;2023-07-28T05:21:15;7.10;;;3.00;;
9888;SDS011;4983;42.112;24.738;2023-07-28T05:23:42;5.00;;;2.90;;
9888;SDS011;4983;42.112;24.738;2023-07-28T05:26:09;6.27;;;3.17;;
9888;SDS011;4983;42.112;24.738;2023-07-28T05:28:38;4.10;;;2.87;;
9888;SDS011;4983;42.112;24.738;2023-07-28T05:31:05;4.23;;;2.93;;
9888;SDS011;4983;42.112;24.738;2023-07-28T05:33:32;3.97;;;2.87;;
9888;SDS011;4983;42.112;24.738;2023-07-28T05:36:01;5.13;;;3.00;;
9888;SDS011;4983;42.112;24.738;2023-07-28T05:38:28;3.97;;;2.70;;
9888;SDS011;4983;42.112;24.738;2023-07-28T05:40:56;5.30;;;2.80;;
9888;SDS011;4983;42.112;24.738;2023-07-28T05:43:23;9.80;;;3.87;;
9888;SDS011;4983;42.112;24.738;2023-07-28T05:45:51;2.80;;;2.57;;
9888;SDS011;4983;42.112;24.738;2023-07-28T05:48:18;5.23;;;2.90;;
9888;SDS011;4983;42.112;24.738;2023-07-28T05:50:45;4.33;;;3.10;;
9888;SDS011;4983;42.112;24.738;2023-07-28T05:53:13;4.67;;;2.60;;
9888;SDS011;4983;42.112;24.738;2023-07-28T05:55:39;8.27;;;3.37;;
9888;SDS011;4983;42.112;24.738;2023-07-28T05:58:06;5.10;;;3.33;;
9888;SDS011;4983;42.112;24.738;2023-07-28T06:00:33;3.60;;;2.80;;
9888;SDS011;4983;42.112;24.738;2023-07-28T06:03:01;10.10;;;3.47;;
9888;SDS011;4983;42.112;24.738;2023-07-28T06:05:28;2.97;;;2.77;;
9888;SDS011;4983;42.112;24.738;2023-07-28T06:07:55;3.20;;;2.90;;
9888;SDS011;4983;42.112;24.738;2023-07-28T06:10:22;4.70;;;2.90;;
9888;SDS011;4983;42.112;24.738;2023-07-28T06:12:49;14.70;;;3.03;;
9888;SDS011;4983;42.112;24.738;2023-07-28T06:15:16;6.40;;;2.83;;
9888;SDS011;4983;42.112;24.738;2023-07-28T06:17:43;13.90;;;3.20;;
9888;SDS011;4983;42.112;24.738;2023-07-28T06:20:11;4.37;;;2.60;;
9888;SDS011;4983;42.112;24.738;2023-07-28T06:22:39;4.83;;;3.03;;
9888;SDS011;4983;42.112;24.738;2023-07-28T06:25:06;2.90;;;2.60;;
9888;SDS011;4983;42.112;24.738;2023-07-28T06:27:33;5.60;;;3.43;;
9888;SDS011;4983;42.112;24.738;2023-07-28T06:30:00;7.77;;;2.93;;
9888;SDS011;4983;42.112;24.738;2023-07-28T06:32:28;6.73;;;2.93;;
9888;SDS011;4983;42.112;24.738;2023-07-28T06:34:55;3.40;;;2.53;;
9888;SDS011;4983;42.112;24.738;2023-07-28T06:37:24;3.50;;;2.60;;
9888;SDS011;4983;42.112;24.738;2023-07-28T06:39:51;4.10;;;2.70;;
9888;SDS011;4983;42.112;24.738;2023-07-28T06:42:17;5.20;;;2.80;;
9888;SDS011;4983;42.112;24.738;2023-07-28T06:44:49;3.90;;;2.80;;
9888;SDS011;4983;42.112;24.738;2023-07-28T06:47:16;5.00;;;2.80;;
9888;SDS011;4983;42.112;24.738;2023-07-28T06:49:43;3.40;;;2.90;;
9888;SDS011;4983;42.112;24.738;2023-07-28T06:52:10;2.90;;;2.60;;
9888;SDS011;4983;42.112;24.738;2023-07-28T06:54:38;4.57;;;2.40;;
9888;SDS011;4983;42.112;24.738;2023-07-28T06:57:06;2.50;;;2.27;;
9888;SDS011;4983;42.112;24.738;2023-07-28T06:59:33;5.30;;;2.57;;
9888;SDS011;4983;42.112;24.738;2023-07-28T07:02:00;3.57;;;2.47;;
9888;SDS011;4983;42.112;24.738;2023-07-28T07:04:27;7.90;;;2.50;;
9888;SDS011;4983;42.112;24.738;2023-07-28T07:06:53;4.03;;;2.30;;
9888;SDS011;4983;42.112;24.738;2023-07-28T07:09:20;10.10;;;3.40;;
9888;SDS011;4983;42.112;24.738;2023-07-28T07:11:49;4.23;;;2.83;;
9888;SDS011;4983;42.112;24.738;2023-07-28T07:14:15;2.83;;;2.30;;
9888;SDS011;4983;42.112;24.738;2023-07-28T07:16:43;2.80;;;2.50;;
9888;SDS011;4983;42.112;24.738;2023-07-28T07:19:10;4.73;;;2.50;;
9888;SDS011;4983;42.112;24.738;2023-07-28T07:21:36;3.00;;;2.30;;
9888;SDS011;4983;42.112;24.738;2023-07-28T07:24:04;2.77;;;2.53;;
9888;SDS011;4983;42.112;24.738;2023-07-28T07:26:31;6.27;;;2.40;;
9888;SDS011;4983;42.112;24.738;2023-07-28T07:28:59;5.27;;;2.50;;
9888;SDS011;4983;42.112;24.738;2023-07-28T07:31:26;3.00;;;2.47;;
9888;SDS011;4983;42.112;24.738;2023-07-28T07:33:53;2.70;;;2.50;;
9888;SDS011;4983;42.112;24.738;2023-07-28T07:36:20;5.37;;;2.03;;
9888;SDS011;4983;42.112;24.738;2023-07-28T07:38:47;2.50;;;2.07;;
9888;SDS011;4983;42.112;24.738;2023-07-28T07:41:14;10.57;;;2.40;;
9888;SDS011;4983;42.112;24.738;2023-07-28T07:43:44;8.13;;;2.33;;
9888;SDS011;4983;42.112;24.738;2023-07-28T07:46:13;4.07;;;2.13;;
9888;SDS011;4983;42.112;24.738;2023-07-28T07:48:40;3.30;;;2.30;;
9888;SDS011;4983;42.112;24.738;2023-07-28T07:51:07;6.33;;;2.73;;
9888;SDS011;4983;42.112;24.738;2023-07-28T07:53:35;2.87;;;2.33;;
9888;SDS011;4983;42.112;24.738;2023-07-28T07:56:04;2.53;;;2.23;;
9888;SDS011;4983;42.112;24.738;2023-07-28T07:58:32;3.90;;;2.07;;
9888;SDS011;4983;42.112;24.738;2023-07-28T08:00:59;4.77;;;2.30;;
9888;SDS011;4983;42.112;24.738;2023-07-28T08:03:28;3.93;;;2.27;;
9888;SDS011;4983;42.112;24.738;2023-07-28T08:05:57;4.10;;;2.07;;
9888;SDS011;4983;42.112;24.738;2023-07-28T08:08:25;3.53;;;1.83;;
9888;SDS011;4983;42.112;24.738;2023-07-28T08:10:53;2.10;;;1.90;;
9888;SDS011;4983;42.112;24.738;2023-07-28T08:13:20;2.73;;;2.00;;
9888;SDS011;4983;42.112;24.738;2023-07-28T08:15:47;2.23;;;1.90;;
9888;SDS011;4983;42.112;24.738;2023-07-28T08:18:14;3.13;;;1.70;;
9888;SDS011;4983;42.112;24.738;2023-07-28T08:20:43;6.50;;;2.20;;
9888;SDS011;4983;42.112;24.738;2023-07-28T08:23:11;4.27;;;2.00;;
9888;SDS011;4983;42.112;24.738;2023-07-28T08:25:39;1.90;;;1.80;;
9888;SDS011;4983;42.112;24.738;2023-07-28T08:28:06;2.10;;;1.90;;
9888;SDS011;4983;42.112;24.738;2023-07-28T08:30:33;4.67;;;1.93;;
9888;SDS011;4983;42.112;24.738;2023-07-28T08:33:00;2.33;;;1.87;;
9888;SDS011;4983;42.112;24.738;2023-07-28T08:35:29;5.87;;;1.73;;
9888;SDS011;4983;42.112;24.738;2023-07-28T08:37:57;8.33;;;2.10;;
9888;SDS011;4983;42.112;24.738;2023-07-28T08:40:25;15.97;;;3.30;;
9888;SDS011;4983;42.112;24.738;2023-07-28T08:42:53;8.00;;;2.47;;
9888;SDS011;4983;42.112;24.738;2023-07-28T08:45:20;8.07;;;2.50;;
9888;SDS011;4983;42.112;24.738;2023-07-28T08:47:49;2.27;;;2.00;;
9888;SDS011;4983;42.112;24.738;2023-07-28T08:50:16;2.90;;;1.90;;
9888;SDS011;4983;42.112;24.738;2023-07-28T08:52:43;3.80;;;1.57;;
9888;SDS011;4983;42.112;24.738;2023-07-28T08:55:12;2.57;;;1.93;;
9888;SDS011;4983;42.112;24.738;2023-07-28T08:57:39;4.53;;;2.07;;
9888;SDS011;4983;42.112;24.738;2023-07-28T09:00:08;6.43;;;1.90;;
9888;SDS011;4983;42.112;24.738;2023-07-28T09:02:36;2.17;;;1.97;;
9888;SDS011;4983;42.112;24.738;2023-07-28T09:05:03;9.13;;;2.20;;
9888;SDS011;4983;42.112;24.738;2023-07-28T09:07:33;3.43;;;1.70;;
9888;SDS011;4983;42.112;24.738;2023-07-28T09:10:01;1.60;;;1.50;;
9888;SDS011;4983;42.112;24.738;2023-07-28T09:12:32;1.97;;;1.60;;
9888;SDS011;4983;42.112;24.738;2023-07-28T09:14:59;2.97;;;1.60;;
9888;SDS011;4983;42.112;24.738;2023-07-28T09:17:27;5.07;;;1.70;;
9888;SDS011;4983;42.112;24.738;2023-07-28T09:19:59;3.07;;;1.80;;
9888;SDS011;4983;42.112;24.738;2023-07-28T09:22:27;2.63;;;1.40;;
9888;SDS011;4983;42.112;24.738;2023-07-28T09:24:56;2.53;;;1.70;;
9888;SDS011;4983;42.112;24.738;2023-07-28T09:27:24;9.17;;;2.37;;
9888;SDS011;4983;42.112;24.738;2023-07-28T09:29:53;4.50;;;1.40;;
9888;SDS011;4983;42.112;24.738;2023-07-28T09:32:26;1.80;;;1.40;;
9888;SDS011;4983;42.112;24.738;2023-07-28T09:35:06;2.80;;;1.93;;
9888;SDS011;4983;42.112;24.738;2023-07-28T09:37:36;2.30;;;1.33;;
9888;SDS011;4983;42.112;24.738;2023-07-28T09:40:07;2.07;;;1.50;;
9888;SDS011;4983;42.112;24.738;2023-07-28T09:42:37;1.40;;;1.30;;
9888;SDS011;4983;42.112;24.738;2023-07-28T09:45:07;1.30;;;1.00;;
9888;SDS011;4983;42.112;24.738;2023-07-28T09:47:36;2.13;;;1.17;;
9888;SDS011;4983;42.112;24.738;2023-07-28T09:50:05;6.00;;;1.37;;
9888;SDS011;4983;42.112;24.738;2023-07-28T09:52:37;1.27;;;1.10;;
9888;SDS011;4983;42.112;24.738;2023-07-28T09:55:07;1.30;;;1.20;;
9888;SDS011;4983;42.112;24.738;2023-07-28T09:57:41;1.37;;;1.10;;
9888;SDS011;4983;42.112;24.738;2023-07-28T10:00:14;1.10;;;0.90;;
9888;SDS011;4983;42.112;24.738;2023-07-28T10:02:43;2.90;;;1.30;;
9888;SDS011;4983;42.112;24.738;2023-07-28T10:05:11;1.43;;;1.30;;
9888;SDS011;4983;42.112;24.738;2023-07-28T10:07:41;11.13;;;1.83;;
9888;SDS011;4983;42.112;24.738;2023-07-28T10:10:10;4.50;;;1.40;;
9888;SDS011;4983;42.112;24.738;2023-07-28T10:12:39;4.63;;;1.40;;
9888;SDS011;4983;42.112;24.738;2023-07-28T10:15:11;1.30;;;1.20;;
9888;SDS011;4983;42.112;24.738;2023-07-28T10:17:43;1.20;;;1.10;;
9888;SDS011;4983;42.112;24.738;2023-07-28T10:20:28;9.13;;;2.10;;
9888;SDS011;4983;42.112;24.738;2023-07-28T10:23:03;1.30;;;1.20;;
9888;SDS011;4983;42.112;24.738;2023-07-28T10:25:35;7.97;;;1.83;;
9888;SDS011;4983;42.112;24.738;2023-07-28T10:28:04;1.90;;;1.30;;
9888;SDS011;4983;42.112;24.738;2023-07-28T10:30:38;1.20;;;1.10;;
9888;SDS011;4983;42.112;24.738;2023-07-28T10:33:25;1.20;;;1.10;;
9888;SDS011;4983;42.112;24.738;2023-07-28T10:35:54;1.47;;;1.30;;
9888;SDS011;4983;42.112;24.738;2023-07-28T10:38:31;2.87;;;1.30;;
9888;SDS011;4983;42.112;24.738;2023-07-28T10:41:05;1.30;;;1.10;;
9888;SDS011;4983;42.112;24.738;2023-07-28T10:43:37;1.50;;;1.20;;
9888;SDS011;4983;42.112;24.738;2023-07-28T10:46:09;5.23;;;1.60;;
9888;SDS011;4983;42.112;24.738;2023-07-28T10:48:37;4.73;;;1.80;;
9888;SDS011;4983;42.112;24.738;2023-07-28T10:51:08;2.53;;;1.20;;
9888;SDS011;4983;42.112;24.738;2023-07-28T10:53:36;1.07;;;0.97;;
9888;SDS011;4983;42.112;24.738;2023-07-28T10:56:04;1.77;;;1.30;;
9888;SDS011;4983;42.112;24.738;2023-07-28T10:58:34;5.97;;;1.70;;
9888;SDS011;4983;42.112;24.738;2023-07-28T11:01:02;1.50;;;1.20;;
9888;SDS011;4983;42.112;24.738;2023-07-28T11:03:31;3.00;;;1.10;;
9888;SDS011;4983;42.112;24.738;2023-07-28T11:05:58;3.50;;;1.03;;
9888;SDS011;4983;42.112;24.738;2023-07-28T11:08:26;10.63;;;2.30;;
9888;SDS011;4983;42.112;24.738;2023-07-28T11:10:53;1.97;;;1.33;;
9888;SDS011;4983;42.112;24.738;2023-07-28T11:13:20;6.97;;;1.80;;
9888;SDS011;4983;42.112;24.738;2023-07-28T11:15:50;5.63;;;1.53;;
9888;SDS011;4983;42.112;24.738;2023-07-28T11:18:17;1.20;;;1.07;;
9888;SDS011;4983;42.112;24.738;2023-07-28T11:20:46;1.27;;;1.10;;
9888;SDS011;4983;42.112;24.738;2023-07-28T11:23:14;1.50;;;1.40;;
9888;SDS011;4983;42.112;24.738;2023-07-28T11:25:43;1.80;;;1.40;;
9888;SDS011;4983;42.112;24.738;2023-07-28T11:28:12;1.30;;;1.20;;
9888;SDS011;4983;42.112;24.738;2023-07-28T11:30:39;1.23;;;1.13;;
9888;SDS011;4983;42.112;24.738;2023-07-28T11:33:08;2.13;;;1.10;;
9888;SDS011;4983;42.112;24.738;2023-07-28T11:35:37;3.60;;;1.00;;
9888;SDS011;4983;42.112;24.738;2023-07-28T11:38:05;1.73;;;1.00;;
9888;SDS011;4983;42.112;24.738;2023-07-28T11:40:34;0.87;;;0.87;;
9888;SDS011;4983;42.112;24.738;2023-07-28T11:43:02;1.20;;;1.10;;
9888;SDS011;4983;42.112;24.738;2023-07-28T11:45:30;1.20;;;1.10;;
9888;SDS011;4983;42.112;24.738;2023-07-28T11:47:58;1.10;;;1.00;;
9888;SDS011;4983;42.112;24.738;2023-07-28T11:50:28;1.47;;;1.00;;
9888;SDS011;4983;42.112;24.738;2023-07-28T11:52:58;4.70;;;1.50;;
9888;SDS011;4983;42.112;24.738;2023-07-28T11:55:27;1.70;;;1.30;;
9888;SDS011;4983;42.112;24.738;2023-07-28T11:57:56;1.80;;;0.93;;
9888;SDS011;4983;42.112;24.738;2023-07-28T12:00:30;1.20;;;1.00;;
9888;SDS011;4983;42.112;24.738;2023-07-28T12:03:04;4.13;;;1.40;;
9888;SDS011;4983;42.112;24.738;2023-07-28T12:05:35;2.97;;;1.43;;
9888;SDS011;4983;42.112;24.738;2023-07-28T12:08:03;0.80;;;0.80;;
9888;SDS011;4983;42.112;24.738;2023-07-28T12:10:31;1.70;;;1.23;;
9888;SDS011;4983;42.112;24.738;2023-07-28T12:13:03;2.73;;;1.17;;
9888;SDS011;4983;42.112;24.738;2023-07-28T12:15:31;1.47;;;1.30;;
9888;SDS011;4983;42.112;24.738;2023-07-28T12:18:06;2.10;;;1.20;;
9888;SDS011;4983;42.112;24.738;2023-07-28T12:20:36;3.23;;;1.20;;
9888;SDS011;4983;42.112;24.738;2023-07-28T12:23:04;3.77;;;1.40;;
9888;SDS011;4983;42.112;24.738;2023-07-28T12:25:33;1.13;;;1.00;;
9888;SDS011;4983;42.112;24.738;2023-07-28T12:28:00;1.30;;;1.10;;
9888;SDS011;4983;42.112;24.738;2023-07-28T12:30:28;4.10;;;2.10;;
9888;SDS011;4983;42.112;24.738;2023-07-28T12:32:55;1.10;;;1.00;;
9888;SDS011;4983;42.112;24.738;2023-07-28T12:35:22;1.70;;;1.10;;
9888;SDS011;4983;42.112;24.738;2023-07-28T12:37:50;1.60;;;0.90;;
9888;SDS011;4983;42.112;24.738;2023-07-28T12:40:18;1.47;;;1.23;;
9888;SDS011;4983;42.112;24.738;2023-07-28T12:42:47;2.03;;;1.27;;
9888;SDS011;4983;42.112;24.738;2023-07-28T12:45:14;1.90;;;1.20;;
9888;SDS011;4983;42.112;24.738;2023-07-28T12:47:41;2.10;;;1.17;;
9888;SDS011;4983;42.112;24.738;2023-07-28T12:50:09;1.47;;;1.10;;
9888;SDS011;4983;42.112;24.738;2023-07-28T12:52:36;1.10;;;1.00;;
9888;SDS011;4983;42.112;24.738;2023-07-28T12:55:03;4.53;;;1.83;;
9888;SDS011;4983;42.112;24.738;2023-07-28T12:57:31;2.43;;;1.30;;
9888;SDS011;4983;42.112;24.738;2023-07-28T12:59:59;1.47;;;1.30;;
9888;SDS011;4983;42.112;24.738;2023-07-28T13:02:26;1.20;;;1.10;;
9888;SDS011;4983;42.112;24.738;2023-07-28T13:04:53;1.83;;;1.60;;
9888;SDS011;4983;42.112;24.738;2023-07-28T13:07:20;1.27;;;1.10;;
9888;SDS011;4983;42.112;24.738;2023-07-28T13:09:48;1.20;;;1.10;;
9888;SDS011;4983;42.112;24.738;2023-07-28T13:12:14;1.70;;;1.30;;
9888;SDS011;4983;42.112;24.738;2023-07-28T13:14:41;3.90;;;1.30;;
9888;SDS011;4983;42.112;24.738;2023-07-28T13:17:09;3.43;;;1.13;;
9888;SDS011;4983;42.112;24.738;2023-07-28T13:19:38;1.23;;;1.10;;
9888;SDS011;4983;42.112;24.738;2023-07-28T13:22:05;1.80;;;1.20;;
9888;SDS011;4983;42.112;24.738;2023-07-28T13:24:32;1.43;;;1.23;;
9888;SDS011;4983;42.112;24.738;2023-07-28T13:27:00;6.00;;;1.67;;
9888;SDS011;4983;42.112;24.738;2023-07-28T13:29:26;4.90;;;1.90;;
9888;SDS011;4983;42.112;24.738;2023-07-28T13:31:56;4.73;;;1.60;;
9888;SDS011;4983;42.112;24.738;2023-07-28T13:34:25;1.73;;;1.30;;
9888;SDS011;4983;42.112;24.738;2023-07-28T13:36:53;3.83;;;1.27;;
9888;SDS011;4983;42.112;24.738;2023-07-28T13:39:20;1.77;;;1.27;;
9888;SDS011;4983;42.112;24.738;2023-07-28T13:41:47;3.57;;;1.20;;
9888;SDS011;4983;42.112;24.738;2023-07-28T13:44:15;1.97;;;1.50;;
9888;SDS011;4983;42.112;24.738;2023-07-28T13:46:42;2.23;;;1.30;;
9888;SDS011;4983;42.112;24.738;2023-07-28T13:49:09;1.20;;;1.10;;
9888;SDS011;4983;42.112;24.738;2023-07-28T13:51:37;1.20;;;1.10;;
9888;SDS011;4983;42.112;24.738;2023-07-28T13:54:06;1.53;;;1.43;;
9888;SDS011;4983;42.112;24.738;2023-07-28T13:56:33;1.83;;;1.20;;
9888;SDS011;4983;42.112;24.738;2023-07-28T13:59:01;1.93;;;1.30;;
9888;SDS011;4983;42.112;24.738;2023-07-28T14:01:28;1.27;;;1.10;;
9888;SDS011;4983;42.112;24.738;2023-07-28T14:03:55;1.67;;;1.30;;
9888;SDS011;4983;42.112;24.738;2023-07-28T14:06:22;5.33;;;1.73;;
9888;SDS011;4983;42.112;24.738;2023-07-28T14:08:50;10.33;;;1.97;;
9888;SDS011;4983;42.112;24.738;2023-07-28T14:11:19;10.63;;;2.30;;
9888;SDS011;4983;42.112;24.738;2023-07-28T14:13:45;1.50;;;1.23;;
9888;SDS011;4983;42.112;24.738;2023-07-28T14:16:12;2.43;;;1.30;;
9888;SDS011;4983;42.112;24.738;2023-07-28T14:18:41;2.07;;;1.40;;
9888;SDS011;4983;42.112;24.738;2023-07-28T14:21:08;2.90;;;1.40;;
9888;SDS011;4983;42.112;24.738;2023-07-28T14:23:38;1.30;;;1.20;;
9888;SDS011;4983;42.112;24.738;2023-07-28T14:26:10;1.30;;;1.20;;
9888;SDS011;4983;42.112;24.738;2023-07-28T14:28:37;3.30;;;1.30;;
9888;SDS011;4983;42.112;24.738;2023-07-28T14:31:05;2.83;;;1.27;;
9888;SDS011;4983;42.112;24.738;2023-07-28T14:33:32;1.90;;;1.20;;
9888;SDS011;4983;42.112;24.738;2023-07-28T14:35:59;10.87;;;3.10;;
9888;SDS011;4983;42.112;24.738;2023-07-28T14:38:26;1.40;;;1.20;;
9888;SDS011;4983;42.112;24.738;2023-07-28T14:40:53;1.23;;;1.10;;
9888;SDS011;4983;42.112;24.738;2023-07-28T14:43:22;1.30;;;1.20;;
9888;SDS011;4983;42.112;24.738;2023-07-28T14:45:51;1.20;;;1.10;;
9888;SDS011;4983;42.112;24.738;2023-07-28T14:48:18;8.00;;;2.10;;
9888;SDS011;4983;42.112;24.738;2023-07-28T14:50:45;1.37;;;1.27;;
9888;SDS011;4983;42.112;24.738;2023-07-28T14:53:27;1.30;;;1.10;;
9888;SDS011;4983;42.112;24.738;2023-07-28T14:55:55;2.13;;;1.17;;
9888;SDS011;4983;42.112;24.738;2023-07-28T14:58:27;1.53;;;1.40;;
9888;SDS011;4983;42.112;24.738;2023-07-28T15:00:54;2.50;;;1.30;;
9888;SDS011;4983;42.112;24.738;2023-07-28T15:03:21;1.80;;;1.40;;
9888;SDS011;4983;42.112;24.738;2023-07-28T15:05:49;2.83;;;1.47;;